createdAt,value
2022-08-02T00:00:41.719Z,100520.03
2022-08-02T00:03:09.787Z,100514.16
2022-08-02T00:05:40.225Z,100510.41
2022-08-02T00:08:08.520Z,100508.59
2022-08-02T00:10:36.575Z,100510.22
2022-08-02T00:13:06.148Z,100509.06
2022-08-02T00:15:34.205Z,100510.25
2022-08-02T00:18:02.212Z,100519.03
2022-08-02T00:20:30.454Z,100513.78
2022-08-02T00:22:58.780Z,100513.97
2022-08-02T00:25:26.894Z,100509.06
2022-08-02T00:27:54.866Z,100511.97
2022-08-02T00:30:24.831Z,100515.69
2022-08-02T00:32:52.841Z,100518.47
2022-08-02T00:35:21.007Z,100520.75
2022-08-02T00:37:49.212Z,100519.84
2022-08-02T00:40:17.190Z,100523.13
2022-08-02T00:42:45.215Z,100527.78
2022-08-02T00:45:13.266Z,100532.06
2022-08-02T00:47:42.770Z,100527.31
2022-08-02T00:50:11.357Z,100530.59
2022-08-02T00:52:39.515Z,100529.47
2022-08-02T00:55:08.406Z,100531.53
2022-08-02T00:57:37.148Z,100534.84
2022-08-02T01:00:07.479Z,100524.13
2022-08-02T01:02:35.659Z,100529.16
2022-08-02T01:05:05.541Z,100537.47
2022-08-02T01:07:33.798Z,100536.72
2022-08-02T01:10:01.977Z,100534.47
2022-08-02T01:12:30.175Z,100538.75
2022-08-02T01:15:01.600Z,100537.94
2022-08-02T01:17:35.651Z,100536.94
2022-08-02T01:20:12.837Z,100539.16
2022-08-02T01:23:03.135Z,100542.22
2022-08-02T01:25:51.783Z,100542.06
2022-08-02T01:28:30.935Z,100539.56
2022-08-02T01:31:03.775Z,100536.66
2022-08-02T01:33:40.505Z,100534.16
2022-08-02T01:36:12.861Z,100539.47
2022-08-02T01:38:45.893Z,100533.09
2022-08-02T01:41:19.321Z,100533.63
2022-08-02T01:43:50.653Z,100536.84
2022-08-02T01:46:20.194Z,100527.84
2022-08-02T01:48:50.906Z,100524.63
2022-08-02T01:51:41.141Z,100532.66
2022-08-02T01:54:12.599Z,100536.34
2022-08-02T01:56:43.021Z,100530.97
2022-08-02T01:59:16.522Z,100529.06
2022-08-02T02:01:45.493Z,100537.22
2022-08-02T02:04:17.167Z,100536.13
2022-08-02T02:06:46.546Z,100532.03
2022-08-02T02:09:16.504Z,100536.38
2022-08-02T02:12:12.290Z,100542.25
2022-08-02T02:14:38.768Z,100536.97
2022-08-02T02:17:08.020Z,100536.03
2022-08-02T02:19:38.939Z,100536.13
2022-08-02T02:22:07.091Z,100531.81
2022-08-02T02:24:36.797Z,100533.38
2022-08-02T02:27:09.039Z,100534.22
2022-08-02T02:29:42.927Z,100532.16
2022-08-02T02:32:11.880Z,100538.31
2022-08-02T02:34:44.278Z,100528.09
2022-08-02T02:37:17.274Z,100528.94
2022-08-02T02:39:46.775Z,100525.91
2022-08-02T02:42:17.792Z,100527.38
2022-08-02T02:44:48.140Z,100527.13
2022-08-02T02:47:18.011Z,100534.44
2022-08-02T02:49:48.140Z,100531.34
2022-08-02T02:52:17.455Z,100525.69
2022-08-02T02:54:50.309Z,100528.69
2022-08-02T02:57:19.162Z,100531.19
2022-08-02T02:59:49.820Z,100526.88
2022-08-02T03:02:19.238Z,100528.56
2022-08-02T03:04:57.489Z,100527.97
2022-08-02T03:07:27.831Z,100530.59
2022-08-02T03:09:55.916Z,100533.59
2022-08-02T03:12:31.736Z,100544.66
2022-08-02T03:15:05.027Z,100541.53
2022-08-02T03:17:41.608Z,100534.19
2022-08-02T03:20:14.803Z,100540.19
2022-08-02T03:22:43.490Z,100539.44
2022-08-02T03:25:12.482Z,100544.34
2022-08-02T03:27:41.148Z,100546.84
2022-08-02T03:30:15.787Z,100541.25
2022-08-02T03:32:46.595Z,100547.56
2022-08-02T03:35:22.855Z,100546.44
2022-08-02T03:37:57.301Z,100539.75
2022-08-02T03:40:27.753Z,100539.81
2022-08-02T03:42:56.059Z,100539.97
2022-08-02T03:45:27.443Z,100536.16
2022-08-02T03:47:58.733Z,100539.97
2022-08-02T03:50:28.828Z,100552.09
2022-08-02T03:52:57.875Z,100538.84
2022-08-02T03:55:26.307Z,100538.94
2022-08-02T03:57:54.353Z,100542.88
2022-08-02T04:00:23.443Z,100543.25
2022-08-02T04:02:53.152Z,100542.22
2022-08-02T04:05:21.847Z,100550.44
2022-08-02T04:08:05.943Z,100550.94
2022-08-02T04:10:54.015Z,100541.47
2022-08-02T04:13:27.480Z,100539.47
2022-08-02T04:16:03.887Z,100539.16
2022-08-02T04:18:40.823Z,100542.88
2022-08-02T04:21:14.913Z,100549.28
2022-08-02T04:23:45.028Z,100548.44
2022-08-02T04:26:14.011Z,100548.44
2022-08-02T04:28:44.523Z,100552.84
2022-08-02T04:31:12.839Z,100551.41
2022-08-02T04:33:42.553Z,100558.34
2022-08-02T04:36:14.098Z,100556.13
2022-08-02T04:38:42.455Z,100559.31
2022-08-02T04:41:10.682Z,100562.66
2022-08-02T04:43:38.728Z,100564.53
2022-08-02T04:46:06.753Z,100563.31
2022-08-02T04:48:34.863Z,100565.56
2022-08-02T04:51:04.602Z,100573.66
2022-08-02T04:53:33.635Z,100576.19
2022-08-02T04:56:01.806Z,100571.41
2022-08-02T04:58:45.076Z,100574.94
2022-08-02T05:01:13.072Z,100578.75
2022-08-02T05:03:41.387Z,100576.53
2022-08-02T05:06:19.430Z,100584.19
2022-08-02T05:08:52.721Z,100589.28
2022-08-02T05:11:22.361Z,100586.91
2022-08-02T05:14:02.162Z,100583.91
2022-08-02T05:16:30.983Z,100585.00
2022-08-02T05:19:00.312Z,100596.06
2022-08-02T05:21:31.801Z,100597.72
2022-08-02T05:24:00.178Z,100599.75
2022-08-02T05:26:28.161Z,100597.50
2022-08-02T05:28:56.203Z,100595.44
2022-08-02T05:31:24.118Z,100590.16
2022-08-02T05:33:52.146Z,100593.88
2022-08-02T05:36:21.688Z,100593.88
2022-08-02T05:38:52.898Z,100586.31
2022-08-02T05:41:27.883Z,100588.38
2022-08-02T05:43:55.871Z,100585.25
2022-08-02T05:46:24.343Z,100580.53
2022-08-02T05:48:52.499Z,100579.00
2022-08-02T05:51:23.765Z,100583.06
2022-08-02T05:54:01.800Z,100594.94
2022-08-02T05:56:36.264Z,100591.81
2022-08-02T05:59:08.662Z,100589.75
2022-08-02T06:01:40.073Z,100585.38
2022-08-02T06:04:10.499Z,100595.50
2022-08-02T06:06:39.445Z,100607.34
2022-08-02T06:09:10.916Z,100615.16
2022-08-02T06:12:01.912Z,100616.69
2022-08-02T06:14:33.870Z,100608.31
2022-08-02T06:17:05.111Z,100597.56
2022-08-02T06:19:36.673Z,100604.91
2022-08-02T06:22:42.258Z,100598.31
2022-08-02T06:25:11.845Z,100603.94
2022-08-02T06:27:59.037Z,100605.97
2022-08-02T06:30:27.718Z,100607.16
2022-08-02T06:32:56.204Z,100610.97
2022-08-02T06:35:27.103Z,100614.72
2022-08-02T06:38:01.637Z,100606.47
2022-08-02T06:40:37.115Z,100600.78
2022-08-02T06:43:13.921Z,100609.97
2022-08-02T06:45:42.581Z,100614.31
2022-08-02T06:48:11.702Z,100614.78
2022-08-02T06:50:41.913Z,100622.09
2022-08-02T06:53:11.466Z,100615.28
2022-08-02T06:55:43.285Z,100607.88
2022-08-02T06:58:12.969Z,100615.56
2022-08-02T07:00:42.134Z,100610.16
2022-08-02T07:03:10.350Z,100607.78
2022-08-02T07:05:38.785Z,100604.72
2022-08-02T07:08:07.152Z,100614.81
2022-08-02T07:10:35.243Z,100614.13
2022-08-02T07:13:04.665Z,100605.53
2022-08-02T07:15:33.650Z,100606.56
2022-08-02T07:18:01.589Z,100605.03
2022-08-02T07:20:29.707Z,100610.97
2022-08-02T07:22:57.693Z,100596.56
2022-08-02T07:25:26.043Z,100595.06
2022-08-02T07:28:22.084Z,100595.81
2022-08-02T07:30:52.689Z,100599.41
2022-08-02T07:33:37.543Z,100599.56
2022-08-02T07:36:16.628Z,100602.66
2022-08-02T07:38:49.829Z,100596.09
2022-08-02T07:41:17.871Z,100596.63
2022-08-02T07:43:47.612Z,100594.25
2022-08-02T07:46:15.756Z,100587.72
2022-08-02T07:48:43.943Z,100585.59
2022-08-02T07:51:15.505Z,100580.84
2022-08-02T07:53:50.828Z,100584.34
2022-08-02T07:56:20.367Z,100584.66
2022-08-02T07:58:49.707Z,100586.22
2022-08-02T08:01:18.803Z,100591.97
2022-08-02T08:03:47.442Z,100585.00
2022-08-02T08:06:16.320Z,100598.13
2022-08-02T08:08:44.834Z,100593.16
2022-08-02T08:11:13.172Z,100590.91
2022-08-02T08:13:41.558Z,100591.34
2022-08-02T08:16:11.248Z,100587.09
2022-08-02T08:18:39.405Z,100585.38
2022-08-02T08:21:08.000Z,100581.75
2022-08-02T08:23:36.386Z,100582.97
2022-08-02T08:26:05.327Z,100586.03
2022-08-02T08:28:33.604Z,100581.09
2022-08-02T08:31:01.907Z,100583.78
2022-08-02T08:33:31.425Z,100580.28
2022-08-02T08:35:59.692Z,100576.66
2022-08-02T08:38:30.546Z,100579.50
2022-08-02T08:40:58.798Z,100577.22
2022-08-02T08:43:26.761Z,100579.91
2022-08-02T08:45:57.398Z,100585.69
2022-08-02T08:48:30.956Z,100582.28
2022-08-02T08:51:09.201Z,100581.41
2022-08-02T08:53:42.020Z,100590.63
2022-08-02T08:56:16.280Z,100596.88
2022-08-02T08:58:45.401Z,100597.38
2022-08-02T09:01:15.429Z,100597.31
2022-08-02T09:03:44.141Z,100590.28
2022-08-02T09:06:13.827Z,100580.44
2022-08-02T09:08:41.973Z,100572.94
2022-08-02T09:11:16.080Z,100577.41
2022-08-02T09:13:52.907Z,100570.13
2022-08-02T09:16:32.523Z,100570.50
2022-08-02T09:19:02.663Z,100575.34
2022-08-02T09:21:40.025Z,100572.69
2022-08-02T09:24:18.512Z,100566.88
2022-08-02T09:26:47.760Z,100569.31
2022-08-02T09:29:16.638Z,100576.09
2022-08-02T09:31:49.466Z,100574.81
2022-08-02T09:34:19.970Z,100563.00
2022-08-02T09:36:54.406Z,100557.97
2022-08-02T09:39:24.047Z,100565.84
2022-08-02T09:41:53.364Z,100556.66
2022-08-02T09:44:22.030Z,100565.63
2022-08-02T09:46:50.356Z,100566.22
2022-08-02T09:49:20.032Z,100561.25
2022-08-02T09:51:53.690Z,100564.38
2022-08-02T09:54:25.281Z,100565.72
2022-08-02T09:56:58.975Z,100557.94
2022-08-02T09:59:29.178Z,100563.81
2022-08-02T10:02:02.573Z,100557.00
2022-08-02T10:04:34.296Z,100552.31
2022-08-02T10:07:12.084Z,100543.81
2022-08-02T10:09:46.444Z,100537.81
2022-08-02T10:12:16.635Z,100547.66
2022-08-02T10:14:44.812Z,100532.41
2022-08-02T10:17:13.594Z,100532.78
2022-08-02T10:20:02.076Z,100533.31
2022-08-02T10:22:35.120Z,100530.34
2022-08-02T10:25:05.675Z,100518.31
2022-08-02T10:28:02.599Z,100518.31
2022-08-02T10:30:28.177Z,100524.22
2022-08-02T10:32:58.815Z,100516.84
2022-08-02T10:35:27.737Z,100516.16
2022-08-02T10:38:03.748Z,100512.31
2022-08-02T10:40:48.974Z,100520.97
2022-08-02T10:43:45.229Z,100516.25
2022-08-02T10:46:24.471Z,100515.47
2022-08-02T10:52:20.649Z,100497.53
2022-08-02T10:54:57.616Z,100490.94
2022-08-02T10:57:27.370Z,100489.66
2022-08-02T11:00:02.796Z,100485.59
2022-08-02T11:02:43.057Z,100492.91
2022-08-02T11:05:14.250Z,100488.66
2022-08-02T11:07:47.658Z,100485.59
2022-08-02T11:10:37.472Z,100485.94
2022-08-02T11:13:08.760Z,100475.88
2022-08-02T11:15:55.393Z,100482.19
2022-08-02T11:18:24.553Z,100476.41
2022-08-02T11:21:23.110Z,100481.53
2022-08-02T11:23:52.209Z,100476.75
2022-08-02T11:26:47.005Z,100475.78
2022-08-02T11:29:15.864Z,100463.38
2022-08-02T11:31:46.591Z,100462.53
2022-08-02T11:34:37.273Z,100460.66
2022-08-02T11:37:05.796Z,100460.47
2022-08-02T11:39:34.543Z,100461.25
2022-08-02T11:42:09.401Z,100466.03
2022-08-02T11:44:42.951Z,100465.38
2022-08-02T11:47:10.867Z,100466.81
2022-08-02T11:49:39.045Z,100463.97
2022-08-02T11:52:11.415Z,100460.53
2022-08-02T11:54:41.483Z,100458.59
2022-08-02T11:57:19.778Z,100463.47
2022-08-02T11:59:50.375Z,100457.50
2022-08-02T12:02:19.640Z,100461.22
2022-08-02T12:04:54.686Z,100454.47
2022-08-02T12:07:34.293Z,100453.75
2022-08-02T12:10:07.010Z,100459.09
2022-08-02T12:12:48.878Z,100454.78
2022-08-02T12:15:31.092Z,100454.81
2022-08-02T12:18:16.471Z,100455.97
2022-08-02T12:20:45.024Z,100450.44
2022-08-02T12:23:14.251Z,100449.88
2022-08-02T12:25:42.464Z,100442.06
2022-08-02T12:28:22.302Z,100460.22
2022-08-02T12:30:55.894Z,100449.91
2022-08-02T12:33:25.552Z,100448.34
2022-08-02T12:35:54.438Z,100439.78
2022-08-02T12:38:22.443Z,100442.78
2022-08-02T12:40:51.208Z,100440.50
2022-08-02T12:43:23.433Z,100427.88
2022-08-02T12:45:54.254Z,100432.94
2022-08-02T12:48:38.359Z,100429.88
2022-08-02T12:51:22.721Z,100427.63
2022-08-02T12:53:59.708Z,100429.00
2022-08-02T12:56:30.228Z,100436.22
2022-08-02T12:58:59.947Z,100417.75
2022-08-02T13:01:29.467Z,100422.25
2022-08-02T13:04:07.391Z,100421.44
2022-08-02T13:06:44.395Z,100416.88
2022-08-02T13:09:15.354Z,100413.22
2022-08-02T13:11:44.402Z,100406.53
2022-08-02T13:14:15.246Z,100406.75
2022-08-02T13:16:46.265Z,100401.25
2022-08-02T13:19:15.956Z,100403.03
2022-08-02T13:22:01.952Z,100398.09
2022-08-02T13:24:39.673Z,100396.53
2022-08-02T13:27:10.824Z,100392.63
2022-08-02T13:29:40.130Z,100387.13
2022-08-02T13:32:10.759Z,100390.06
2022-08-02T13:34:40.106Z,100386.91
2022-08-02T13:37:08.387Z,100389.91
2022-08-02T13:39:36.429Z,100389.78
2022-08-02T13:42:05.834Z,100379.25
2022-08-02T13:44:51.692Z,100379.09
2022-08-02T13:47:26.729Z,100378.06
2022-08-02T13:50:05.577Z,100379.25
2022-08-02T13:52:37.401Z,100378.13
2022-08-02T13:55:12.590Z,100374.41
2022-08-02T13:57:46.063Z,100372.28
2022-08-02T14:00:35.225Z,100366.13
2022-08-02T14:03:07.197Z,100367.44
2022-08-02T14:05:48.609Z,100361.47
2022-08-02T14:08:20.488Z,100358.41
2022-08-02T14:10:51.010Z,100338.69
2022-08-02T14:13:19.285Z,100337.25
2022-08-02T14:15:51.550Z,100350.16
2022-08-02T14:18:20.374Z,100348.75
2022-08-02T14:20:48.594Z,100353.00
2022-08-02T14:23:17.031Z,100350.94
2022-08-02T14:25:45.282Z,100342.84
2022-08-02T14:28:15.977Z,100344.31
2022-08-02T14:30:44.285Z,100339.53
2022-08-02T14:33:13.952Z,100340.38
2022-08-02T14:35:42.141Z,100338.06
2022-08-02T14:38:10.026Z,100326.88
2022-08-02T14:40:38.114Z,100332.47
2022-08-02T14:43:06.118Z,100326.88
2022-08-02T14:45:36.992Z,100325.78
2022-08-02T14:48:14.053Z,100317.13
2022-08-02T14:50:41.911Z,100313.59
2022-08-02T14:53:12.809Z,100318.78
2022-08-02T14:55:42.860Z,100317.59
2022-08-02T14:58:11.385Z,100322.91
2022-08-02T15:00:41.262Z,100322.59
2022-08-02T15:03:10.828Z,100319.09
2022-08-02T15:05:40.223Z,100319.34
2022-08-02T15:08:08.292Z,100315.16
2022-08-02T15:10:36.457Z,100315.91
2022-08-02T15:13:04.847Z,100310.41
2022-08-02T15:15:33.195Z,100310.78
2022-08-02T15:18:11.537Z,100311.41
2022-08-02T15:20:43.947Z,100303.81
2022-08-02T15:23:37.270Z,100308.09
2022-08-02T15:26:06.777Z,100308.25
2022-08-02T15:28:34.988Z,100299.44
2022-08-02T15:31:03.646Z,100301.25
2022-08-02T15:33:32.439Z,100305.56
2022-08-02T15:36:02.156Z,100297.53
2022-08-02T15:38:30.224Z,100306.59
2022-08-02T15:40:58.562Z,100307.31
2022-08-02T15:43:27.880Z,100303.47
2022-08-02T15:45:56.171Z,100297.53
2022-08-02T15:48:24.313Z,100304.44
2022-08-02T15:51:14.472Z,100293.94
2022-08-02T15:53:43.092Z,100297.25
2022-08-02T15:56:13.024Z,100299.56
2022-08-02T15:58:44.490Z,100301.63
2022-08-02T16:01:13.658Z,100296.25
2022-08-02T16:03:41.651Z,100296.88
2022-08-02T16:06:11.741Z,100304.91
2022-08-02T16:08:44.625Z,100299.38
2022-08-02T16:11:22.294Z,100292.53
2022-08-02T16:13:58.950Z,100295.06
2022-08-02T16:16:28.279Z,100295.88
2022-08-02T16:18:57.478Z,100293.41
2022-08-02T16:21:27.698Z,100289.13
2022-08-02T16:23:58.720Z,100284.59
2022-08-02T16:26:30.879Z,100284.13
2022-08-02T16:28:59.844Z,100279.91
2022-08-02T16:31:28.023Z,100283.44
2022-08-02T16:33:57.381Z,100287.13
2022-08-02T16:36:28.286Z,100281.59
2022-08-02T16:38:56.921Z,100282.19
2022-08-02T16:41:50.909Z,100276.16
2022-08-02T16:44:14.531Z,100271.50
2022-08-02T16:46:45.073Z,100279.63
2022-08-02T16:50:04.659Z,100275.59
2022-08-02T16:52:03.806Z,100275.69
2022-08-02T16:54:32.772Z,100274.69
2022-08-02T16:57:00.699Z,100271.09
2022-08-02T16:59:34.037Z,100272.25
2022-08-02T17:02:15.106Z,100269.38
2022-08-02T17:04:46.552Z,100273.53
2022-08-02T17:08:07.757Z,100265.59
2022-08-02T17:10:09.120Z,100268.78
2022-08-02T17:12:39.322Z,100269.84
2022-08-02T17:16:17.128Z,100275.06
2022-08-02T17:17:57.385Z,100269.16
2022-08-02T17:20:25.658Z,100269.03
2022-08-02T17:22:56.053Z,100277.38
2022-08-02T17:25:31.924Z,100278.59
2022-08-02T17:28:01.240Z,100275.84
2022-08-02T17:30:29.923Z,100274.44
2022-08-02T17:32:59.317Z,100280.03
2022-08-02T17:35:43.346Z,100282.50
2022-08-02T17:38:26.119Z,100281.03
2022-08-02T17:40:55.713Z,100276.78
2022-08-02T17:43:23.857Z,100267.63
2022-08-02T17:46:02.181Z,100271.69
2022-08-02T17:48:55.390Z,100278.69
2022-08-02T17:52:14.855Z,100279.94
2022-08-02T17:54:13.630Z,100284.75
2022-08-02T17:56:42.571Z,100281.59
2022-08-02T17:59:12.193Z,100284.53
2022-08-02T18:01:52.830Z,100278.47
2022-08-02T18:04:27.634Z,100284.50
2022-08-02T18:06:58.546Z,100281.66
2022-08-02T18:09:28.398Z,100280.91
2022-08-02T18:11:58.566Z,100278.19
2022-08-02T18:14:27.250Z,100275.84
2022-08-02T18:16:55.569Z,100273.66
2022-08-02T18:19:23.900Z,100276.19
2022-08-02T18:22:11.528Z,100278.75
2022-08-02T18:24:44.939Z,100273.34
2022-08-02T18:27:14.012Z,100269.44
2022-08-02T18:29:42.122Z,100270.63
2022-08-02T18:32:11.795Z,100270.00
2022-08-02T18:34:40.878Z,100274.22
2022-08-02T18:37:15.761Z,100272.78
2022-08-02T18:39:51.310Z,100275.28
2022-08-02T18:42:21.446Z,100277.00
2022-08-02T18:44:50.078Z,100279.69
2022-08-02T18:47:18.426Z,100278.38
2022-08-02T18:49:51.552Z,100280.06
2022-08-02T18:52:31.067Z,100283.97
2022-08-02T18:55:01.962Z,100280.09
2022-08-02T18:58:03.202Z,100276.09
2022-08-02T19:00:20.716Z,100273.09
2022-08-02T19:02:54.709Z,100274.09
2022-08-02T19:05:24.142Z,100270.47
2022-08-02T19:08:12.841Z,100269.31
2022-08-02T19:10:49.973Z,100272.50
2022-08-02T19:13:18.439Z,100272.00
2022-08-02T19:15:47.775Z,100278.50
2022-08-02T19:18:15.978Z,100274.50
2022-08-02T19:20:48.006Z,100274.00
2022-08-02T19:23:17.338Z,100268.97
2022-08-02T19:25:50.468Z,100274.31
2022-08-02T19:28:25.841Z,100278.66
2022-08-02T19:30:54.601Z,100269.81
2022-08-02T19:33:54.759Z,100282.78
2022-08-02T19:36:11.844Z,100283.97
2022-08-02T19:38:44.001Z,100279.13
2022-08-02T19:41:15.718Z,100278.97
2022-08-02T19:44:22.978Z,100286.44
2022-08-02T19:46:31.990Z,100286.25
2022-08-02T19:49:01.374Z,100282.41
2022-08-02T19:51:49.983Z,100290.41
2022-08-02T19:54:35.919Z,100288.78
2022-08-02T19:57:17.078Z,100287.59
2022-08-02T19:59:48.018Z,100284.09
2022-08-02T20:02:21.481Z,100289.25
2022-08-02T20:04:53.017Z,100287.22
2022-08-02T20:07:55.273Z,100287.22
2022-08-02T20:10:11.851Z,100294.00
2022-08-02T20:12:41.743Z,100300.34
2022-08-02T20:15:14.802Z,100299.81
2022-08-02T20:17:47.649Z,100295.81
2022-08-02T20:20:17.875Z,100296.16
2022-08-02T20:25:54.625Z,100292.44
2022-08-02T20:28:25.630Z,100285.75
2022-08-02T20:30:55.027Z,100278.78
2022-08-02T20:33:23.343Z,100287.41
2022-08-02T20:35:53.297Z,100284.72
2022-08-02T20:38:24.775Z,100274.03
2022-08-02T20:40:56.420Z,100277.84
2022-08-02T20:43:31.168Z,100285.47
2022-08-02T20:46:00.510Z,100275.28
2022-08-02T20:48:29.846Z,100277.97
2022-08-02T20:50:58.214Z,100286.13
2022-08-02T20:53:30.095Z,100286.78
2022-08-02T20:55:58.258Z,100282.81
2022-08-02T20:58:28.178Z,100287.28
2022-08-02T21:01:00.258Z,100286.31
2022-08-02T21:03:39.377Z,100289.28
2022-08-02T21:06:10.353Z,100289.44
2022-08-02T21:08:38.562Z,100290.09
2022-08-02T21:11:09.502Z,100293.75
2022-08-02T21:13:46.789Z,100294.56
2022-08-02T21:16:18.268Z,100297.25
2022-08-02T21:18:48.883Z,100292.66
2022-08-02T21:21:17.751Z,100290.47
2022-08-02T21:23:49.033Z,100290.59
2022-08-02T21:26:28.390Z,100290.72
2022-08-02T21:29:03.630Z,100292.00
2022-08-02T21:34:27.131Z,100296.31
2022-08-02T21:36:55.851Z,100293.03
2022-08-02T21:39:24.307Z,100293.31
2022-08-02T21:41:53.059Z,100294.44
2022-08-02T21:44:23.729Z,100297.94
2022-08-02T21:46:53.996Z,100301.22
2022-08-02T21:49:27.372Z,100304.81
2022-08-02T21:52:11.794Z,100298.34
2022-08-02T21:54:40.754Z,100303.84
2022-08-02T21:57:15.283Z,100298.22
2022-08-02T21:59:46.455Z,100305.47
2022-08-02T22:02:15.532Z,100307.16
2022-08-02T22:04:48.035Z,100311.09
2022-08-02T22:07:17.503Z,100314.59
2022-08-02T22:09:52.729Z,100319.13
2022-08-02T22:12:21.934Z,100318.06
2022-08-02T22:17:53.620Z,100318.78
2022-08-02T22:20:29.280Z,100317.53
2022-08-02T22:22:57.366Z,100315.44
2022-08-02T22:25:35.957Z,100317.53
2022-08-02T22:28:37.140Z,100322.72
2022-08-02T22:30:56.976Z,100321.88
2022-08-02T22:33:47.151Z,100316.28
2022-08-02T22:36:28.915Z,100328.63
2022-08-02T22:38:56.874Z,100328.91
2022-08-02T22:41:25.425Z,100328.25
2022-08-02T22:44:13.614Z,100328.00
2022-08-02T22:46:44.326Z,100328.84
2022-08-02T22:49:37.186Z,100325.94
2022-08-02T22:52:00.242Z,100327.75
2022-08-02T22:54:28.300Z,100333.88
2022-08-02T22:56:57.486Z,100331.09
2022-08-02T22:59:04.405Z,100323.09
2022-08-02T22:59:06.416Z,100285.78
2022-08-02T22:59:10.954Z,100288.34
2022-08-02T22:59:38.675Z,100333.56
2022-08-02T23:02:09.869Z,100329.94
2022-08-02T23:04:40.448Z,100327.84
2022-08-02T23:07:09.677Z,100330.91
2022-08-02T23:09:38.935Z,100330.63
2022-08-02T23:12:08.437Z,100332.97
2022-08-02T23:14:40.496Z,100327.44
2022-08-02T23:17:27.531Z,100329.94
2022-08-02T23:19:55.558Z,100328.81
2022-08-02T23:22:29.944Z,100328.28
2022-08-02T23:25:01.571Z,100330.22
2022-08-02T23:27:29.961Z,100328.97
2022-08-02T23:29:57.826Z,100328.13
2022-08-02T23:32:27.859Z,100329.97
2022-08-02T23:34:56.663Z,100325.50
2022-08-02T23:37:25.229Z,100330.13
2022-08-02T23:39:53.320Z,100330.53
2022-08-02T23:42:23.753Z,100331.66
2022-08-02T23:44:51.911Z,100332.75
2022-08-02T23:47:20.644Z,100330.53
2022-08-02T23:49:50.099Z,100338.34
2022-08-02T23:52:18.684Z,100339.03
2022-08-02T23:54:47.124Z,100334.09
2022-08-02T23:57:21.054Z,100339.91
2022-08-02T23:59:51.190Z,100334.19
